Time;durP1;ratioP1;P1;durP2;ratioP2;P2;SDS_P1;SDS_P2;PMS_P1;PMS_P2;Temp;Humidity;BMP_temperature;BMP_pressure;BME280_temperature;BME280_humidity;BME280_pressure;Samples;Min_cycle;Max_cycle;Signal;HPM_P1;HPM_P2
2023/06/10 00:01:47;;;;;;;8.02;7.32;;;20.80;96.70;;;;;;5071475;28;20499;-52
2023/06/10 00:04:14;;;;;;;10.48;7.10;;;20.80;97.00;;;;;;5071310;28;20021;-50
2023/06/10 00:06:40;;;;;;;11.52;7.57;;;20.80;97.00;;;;;;5071066;28;20073;-51
2023/06/10 00:09:13;;;;;;;10.70;7.22;;;20.90;97.00;;;;;;5071790;28;20021;-50
2023/06/10 00:11:39;;;;;;;11.65;7.65;;;20.90;97.10;;;;;;5071220;28;20472;-49
2023/06/10 00:14:05;;;;;;;8.30;7.32;;;20.80;96.90;;;;;;5053168;28;20043;-48
2023/06/10 00:16:30;;;;;;;13.00;7.47;;;20.80;97.00;;;;;;5071393;28;20025;-52
2023/06/10 00:19:00;;;;;;;16.30;7.68;;;20.70;97.50;;;;;;5053950;28;20515;-49
2023/06/10 00:21:37;;;;;;;8.00;7.20;;;20.60;97.30;;;;;;5071450;28;20103;-47
2023/06/10 00:24:05;;;;;;;12.50;7.68;;;20.50;97.60;;;;;;5070975;28;20039;-53
2023/06/10 00:26:32;;;;;;;9.90;7.20;;;20.40;97.90;;;;;;5070202;28;20041;-48
2023/06/10 00:28:58;;;;;;;9.82;6.72;;;20.30;98.10;;;;;;5071492;28;20043;-50
2023/06/10 00:31:24;;;;;;;11.25;7.03;;;20.30;98.10;;;;;;5071085;28;20127;-48
2023/06/10 00:33:49;;;;;;;8.23;7.00;;;20.20;98.40;;;;;;5069948;28;20100;-48
2023/06/10 00:36:15;;;;;;;12.05;7.32;;;20.30;98.40;;;;;;5071337;28;20036;-51
2023/06/10 00:38:40;;;;;;;8.07;7.28;;;20.20;98.50;;;;;;5071370;28;20031;-47
2023/06/10 00:41:06;;;;;;;8.75;6.93;;;20.10;98.50;;;;;;5070869;28;20020;-47
2023/06/10 00:43:32;;;;;;;12.13;6.88;;;20.10;98.60;;;;;;5071010;28;20021;-48
2023/06/10 00:45:58;;;;;;;9.45;7.80;;;20.20;98.70;;;;;;5071179;28;20123;-52
2023/06/10 00:48:24;;;;;;;11.85;7.55;;;20.20;98.70;;;;;;5071196;28;20432;-51
2023/06/10 00:50:50;;;;;;;9.73;7.05;;;20.10;98.80;;;;;;5071365;28;20017;-50
2023/06/10 00:53:16;;;;;;;7.63;6.82;;;20.10;98.90;;;;;;5070471;28;20039;-51
2023/06/10 00:55:42;;;;;;;8.10;7.28;;;20.10;98.90;;;;;;5071134;28;20051;-50
2023/06/10 00:58:08;;;;;;;10.50;7.30;;;20.10;99.00;;;;;;5071281;28;20024;-47
2023/06/10 01:00:33;;;;;;;7.97;6.57;;;20.00;99.10;;;;;;5070065;28;20024;-52
2023/06/10 01:02:59;;;;;;;9.48;7.45;;;20.00;99.50;;;;;;5070851;28;20028;-48
2023/06/10 01:05:25;;;;;;;10.57;7.20;;;20.00;99.40;;;;;;5070480;28;20434;-47
2023/06/10 01:08:02;;;;;;;10.23;7.90;;;19.90;99.50;;;;;;5071172;28;20040;-52
2023/06/10 01:10:50;;;;;;;9.05;7.40;;;19.90;99.60;;;;;;5071065;28;20031;-49
2023/06/10 01:13:16;;;;;;;11.13;7.70;;;19.90;99.70;;;;;;5052308;28;20028;-48
2023/06/10 01:15:42;;;;;;;10.52;7.28;;;19.90;99.80;;;;;;5070906;28;20040;-47
2023/06/10 01:18:09;;;;;;;9.77;7.70;;;19.80;99.90;;;;;;5072894;28;20094;-47
2023/06/10 01:20:39;;;;;;;15.85;8.07;;;19.80;99.90;;;;;;5075005;28;20105;-50
2023/06/10 01:23:05;;;;;;;15.63;7.65;;;19.80;99.90;;;;;;5074315;28;20021;-49
2023/06/10 01:25:36;;;;;;;11.00;7.15;;;19.80;99.90;;;;;;5074442;28;20021;-50
2023/06/10 01:28:30;;;;;;;11.27;8.20;;;19.70;99.90;;;;;;5074762;28;20024;-50
2023/06/10 01:31:23;;;;;;;10.35;7.68;;;19.70;99.90;;;;;;5074678;28;20492;-49
2023/06/10 01:33:52;;;;;;;9.25;7.88;;;19.70;99.90;;;;;;5073084;28;20185;-52
2023/06/10 01:36:18;;;;;;;10.70;8.20;;;19.60;99.90;;;;;;5074620;28;20024;-51
2023/06/10 01:38:46;;;;;;;8.32;7.03;;;19.60;99.90;;;;;;5074429;28;20077;-53
2023/06/10 01:41:15;;;;;;;8.73;7.40;;;19.60;99.90;;;;;;5073996;28;20024;-48
2023/06/10 01:43:43;;;;;;;10.75;7.45;;;19.50;99.90;;;;;;5073881;28;20039;-51
2023/06/10 01:46:09;;;;;;;10.73;7.32;;;19.40;99.90;;;;;;5073893;28;20084;-49
2023/06/10 01:48:35;;;;;;;16.85;7.65;;;19.40;99.90;;;;;;5074296;28;20123;-51
2023/06/10 01:51:01;;;;;;;10.95;7.57;;;19.40;99.90;;;;;;5074099;28;20492;-53
2023/06/10 01:53:26;;;;;;;10.50;8.52;;;19.30;99.90;;;;;;5074046;28;20583;-52
2023/06/10 01:55:52;;;;;;;11.85;7.82;;;19.30;99.90;;;;;;5074079;28;20055;-49
2023/06/10 01:58:17;;;;;;;13.98;7.97;;;19.30;99.90;;;;;;5074064;28;20085;-48
2023/06/10 02:00:43;;;;;;;11.48;8.48;;;19.30;99.90;;;;;;5074025;28;20029;-48
2023/06/10 02:03:08;;;;;;;8.60;7.63;;;19.30;99.90;;;;;;5073404;28;20024;-51
2023/06/10 02:05:34;;;;;;;11.60;8.32;;;19.30;99.90;;;;;;5072551;28;20044;-51
2023/06/10 02:08:00;;;;;;;10.43;8.82;;;19.30;99.90;;;;;;5073946;28;20025;-54
2023/06/10 02:10:26;;;;;;;9.35;7.95;;;19.20;99.90;;;;;;5073846;28;20047;-47
2023/06/10 02:12:51;;;;;;;8.73;7.85;;;19.20;99.90;;;;;;5073443;28;20029;-47
2023/06/10 02:15:17;;;;;;;9.23;8.00;;;19.20;99.90;;;;;;5073149;28;20416;-51
2023/06/10 02:17:42;;;;;;;10.52;8.05;;;19.20;99.90;;;;;;5073996;28;20391;-49
2023/06/10 02:20:10;;;;;;;8.73;7.85;;;19.10;99.90;;;;;;5073689;28;20028;-48
2023/06/10 02:22:36;;;;;;;10.93;8.57;;;19.10;99.90;;;;;;5073241;28;20030;-48
2023/06/10 02:25:02;;;;;;;9.00;8.10;;;19.10;99.90;;;;;;5073118;28;20407;-48
2023/06/10 02:27:27;;;;;;;8.77;7.70;;;19.10;99.90;;;;;;5073643;28;20020;-52
2023/06/10 02:29:53;;;;;;;11.35;8.40;;;19.00;99.90;;;;;;5072711;28;20464;-50
2023/06/10 02:32:18;;;;;;;10.15;8.75;;;19.00;99.90;;;;;;5071987;28;20028;-48
2023/06/10 02:34:44;;;;;;;11.95;8.90;;;19.00;99.90;;;;;;5073077;28;20039;-48
2023/06/10 02:37:09;;;;;;;13.90;8.15;;;19.00;99.90;;;;;;5073367;28;20099;-54
2023/06/10 02:39:35;;;;;;;9.07;7.78;;;18.90;99.90;;;;;;5072128;28;20021;-48
2023/06/10 02:42:00;;;;;;;10.23;8.45;;;19.00;99.90;;;;;;5073029;28;20021;-48
2023/06/10 02:44:26;;;;;;;13.98;8.30;;;18.90;99.90;;;;;;5072727;28;20033;-52
2023/06/10 02:46:51;;;;;;;9.57;8.15;;;18.90;99.90;;;;;;5073613;28;20058;-47
2023/06/10 02:49:17;;;;;;;10.63;8.18;;;18.90;99.90;;;;;;5073238;28;20674;-47
2023/06/10 02:51:42;;;;;;;11.90;8.90;;;18.90;99.90;;;;;;5072763;28;20021;-48
2023/06/10 02:54:08;;;;;;;17.50;9.57;;;18.90;99.90;;;;;;5054681;28;20086;-48
2023/06/10 02:56:34;;;;;;;10.43;8.85;;;18.80;99.90;;;;;;5055018;28;20121;-47
2023/06/10 02:59:00;;;;;;;11.48;8.82;;;18.90;99.90;;;;;;5072980;28;20096;-48
2023/06/10 03:01:26;;;;;;;9.43;8.55;;;18.80;99.90;;;;;;5072604;28;20398;-47
2023/06/10 03:03:52;;;;;;;10.18;9.18;;;18.80;99.90;;;;;;5072538;28;20029;-48
2023/06/10 03:06:18;;;;;;;10.75;9.65;;;18.70;99.90;;;;;;5072693;28;20032;-46
2023/06/10 03:08:45;;;;;;;9.98;8.95;;;18.80;99.90;;;;;;5072780;28;20024;-48
2023/06/10 03:11:11;;;;;;;12.63;9.00;;;18.70;99.90;;;;;;5071402;28;20013;-50
2023/06/10 03:13:37;;;;;;;12.85;9.25;;;18.70;99.90;;;;;;5072236;28;20056;-46
2023/06/10 03:16:04;;;;;;;9.63;8.57;;;18.70;99.90;;;;;;5072580;28;20021;-49
2023/06/10 03:18:30;;;;;;;11.48;9.38;;;18.60;99.90;;;;;;5072609;28;20016;-49
2023/06/10 03:20:56;;;;;;;10.80;8.85;;;18.60;99.90;;;;;;5054707;28;20119;-51
2023/06/10 03:23:22;;;;;;;15.15;10.07;;;18.60;99.90;;;;;;5071754;28;20021;-49
2023/06/10 03:25:48;;;;;;;9.93;8.93;;;18.60;99.90;;;;;;5072350;28;20028;-50
2023/06/10 03:28:13;;;;;;;11.00;9.30;;;18.50;99.90;;;;;;5072384;28;20024;-51
2023/06/10 03:30:39;;;;;;;10.88;9.55;;;18.50;99.90;;;;;;5072365;28;20017;-51
2023/06/10 03:33:05;;;;;;;10.02;8.82;;;18.40;99.90;;;;;;5070783;28;20429;-51
2023/06/10 03:35:32;;;;;;;11.02;8.75;;;18.40;99.90;;;;;;5071880;28;20028;-53
2023/06/10 03:37:58;;;;;;;11.00;9.23;;;18.40;99.90;;;;;;5054454;28;20385;-52
2023/06/10 03:40:23;;;;;;;9.82;8.43;;;18.40;99.90;;;;;;5071783;28;20031;-47
2023/06/10 03:42:49;;;;;;;9.80;8.75;;;18.40;99.90;;;;;;5071584;28;20056;-47
2023/06/10 03:45:14;;;;;;;11.20;8.60;;;18.50;99.90;;;;;;5071624;28;20036;-48
2023/06/10 03:47:40;;;;;;;10.23;8.65;;;18.40;99.90;;;;;;5072238;28;20024;-50
2023/06/10 03:50:07;;;;;;;14.40;9.00;;;18.40;99.90;;;;;;5072160;28;20027;-49
2023/06/10 03:52:33;;;;;;;10.13;8.98;;;18.50;99.90;;;;;;5071837;28;20507;-50
2023/06/10 03:54:59;;;;;;;12.23;10.30;;;18.50;99.90;;;;;;5071650;28;20036;-52
2023/06/10 03:57:25;;;;;;;12.90;9.18;;;18.50;99.90;;;;;;5071794;28;20032;-52
2023/06/10 03:59:51;;;;;;;9.85;8.77;;;18.60;99.90;;;;;;5071806;28;20480;-47
2023/06/10 04:02:16;;;;;;;13.00;9.82;;;18.60;99.90;;;;;;5071187;28;20028;-50
2023/06/10 04:04:42;;;;;;;10.23;8.20;;;18.60;99.90;;;;;;5053532;28;20040;-47
2023/06/10 04:07:08;;;;;;;10.90;9.00;;;18.60;99.90;;;;;;5071750;28;20095;-49
2023/06/10 04:09:35;;;;;;;12.68;8.73;;;18.70;99.90;;;;;;5071648;28;20027;-49
2023/06/10 04:12:01;;;;;;;11.27;8.18;;;18.70;99.90;;;;;;5053228;28;20075;-52
2023/06/10 04:14:27;;;;;;;13.80;7.78;;;18.70;99.90;;;;;;5071006;28;20036;-49
2023/06/10 04:16:52;;;;;;;9.35;8.35;;;18.80;99.90;;;;;;5071639;28;20028;-52
2023/06/10 04:19:18;;;;;;;8.98;8.18;;;18.80;99.90;;;;;;5070541;28;20457;-48
2023/06/10 04:21:43;;;;;;;13.57;8.52;;;18.80;99.90;;;;;;5071205;28;20029;-50
2023/06/10 04:24:08;;;;;;;12.50;8.70;;;18.90;99.90;;;;;;5071024;28;20028;-49
2023/06/10 04:26:35;;;;;;;10.40;7.95;;;18.90;99.90;;;;;;5071341;28;20483;-50
2023/06/10 04:29:01;;;;;;;15.00;9.60;;;18.90;99.90;;;;;;5071555;28;20071;-47
2023/06/10 04:31:27;;;;;;;9.48;8.63;;;19.00;99.90;;;;;;5053164;28;20506;-46
2023/06/10 04:33:53;;;;;;;10.32;7.85;;;19.00;99.90;;;;;;5070117;28;20016;-49
2023/06/10 04:36:19;;;;;;;9.20;8.30;;;19.10;99.90;;;;;;5071499;28;20068;-49
2023/06/10 04:38:44;;;;;;;10.85;8.40;;;19.10;99.90;;;;;;5071593;28;20033;-49
2023/06/10 04:41:10;;;;;;;9.48;8.55;;;19.20;99.90;;;;;;5071194;28;20545;-51
2023/06/10 04:43:35;;;;;;;9.18;8.10;;;19.20;99.90;;;;;;5070931;28;20043;-51
2023/06/10 04:46:01;;;;;;;12.18;7.63;;;19.30;99.90;;;;;;5071093;28;20039;-48
2023/06/10 04:48:27;;;;;;;7.70;7.00;;;19.40;99.90;;;;;;5071086;28;20020;-47
2023/06/10 04:50:52;;;;;;;8.98;7.90;;;19.70;99.90;;;;;;5071160;28;20095;-49
2023/06/10 04:53:18;;;;;;;10.30;7.45;;;20.00;99.90;;;;;;5071828;28;20108;-53
2023/06/10 04:55:43;;;;;;;8.75;7.85;;;20.30;99.90;;;;;;5075272;28;20066;-49
2023/06/10 04:58:09;;;;;;;10.73;7.50;;;20.80;99.90;;;;;;5075279;28;20453;-47
2023/06/10 05:00:35;;;;;;;9.65;7.57;;;21.50;99.90;;;;;;5075154;28;20032;-48
2023/06/10 05:03:00;;;;;;;10.35;7.07;;;22.10;98.80;;;;;;5074764;28;20108;-52
2023/06/10 05:05:26;;;;;;;12.65;7.45;;;22.50;97.30;;;;;;5074494;28;20028;-52
2023/06/10 05:07:51;;;;;;;7.70;6.70;;;23.00;96.70;;;;;;5075355;28;20031;-50
2023/06/10 05:10:17;;;;;;;12.35;6.53;;;23.50;96.00;;;;;;5075120;28;20075;-48
2023/06/10 05:12:43;;;;;;;8.25;7.32;;;24.00;95.20;;;;;;5074649;28;20073;-49
2023/06/10 05:15:09;;;;;;;7.28;6.38;;;24.10;94.50;;;;;;5074872;28;20500;-51
2023/06/10 05:17:34;;;;;;;7.43;6.53;;;24.30;94.30;;;;;;5075005;28;20024;-49
2023/06/10 05:20:01;;;;;;;9.35;6.32;;;24.40;94.10;;;;;;5074731;28;20029;-50
2023/06/10 05:22:27;;;;;;;9.02;6.47;;;24.80;93.10;;;;;;5074437;28;20131;-52
2023/06/10 05:24:53;;;;;;;8.57;6.20;;;25.00;93.00;;;;;;5074183;28;20021;-51
2023/06/10 05:27:18;;;;;;;6.45;5.85;;;25.20;92.40;;;;;;5074815;28;20024;-49
2023/06/10 05:29:45;;;;;;;6.25;5.65;;;25.30;91.70;;;;;;5074689;28;20024;-50
2023/06/10 05:32:11;;;;;;;6.97;6.38;;;25.10;91.90;;;;;;5071933;28;20035;-49
2023/06/10 05:34:37;;;;;;;7.00;6.35;;;25.10;92.00;;;;;;5074380;28;20097;-49
2023/06/10 05:37:03;;;;;;;8.88;5.88;;;25.10;91.70;;;;;;5074443;28;20021;-51
2023/06/10 05:39:28;;;;;;;8.18;5.93;;;25.00;91.90;;;;;;5074753;28;20035;-48
2023/06/10 05:41:54;;;;;;;8.27;5.47;;;24.90;92.00;;;;;;5074063;28;20652;-48
2023/06/10 05:44:19;;;;;;;6.60;5.95;;;25.00;91.70;;;;;;5073775;28;20032;-52
2023/06/10 05:46:45;;;;;;;7.53;5.93;;;25.20;91.70;;;;;;5074138;28;20021;-53
2023/06/10 05:49:10;;;;;;;7.32;5.68;;;25.40;91.40;;;;;;5074207;28;20024;-51
2023/06/10 05:51:36;;;;;;;14.43;5.80;;;25.60;91.00;;;;;;5074072;28;20032;-51
2023/06/10 05:54:02;;;;;;;8.55;5.70;;;25.90;90.80;;;;;;5073790;28;20052;-51
2023/06/10 05:56:28;;;;;;;7.80;5.57;;;26.30;90.10;;;;;;5074125;28;20021;-48
2023/06/10 05:58:53;;;;;;;7.18;5.28;;;26.70;89.80;;;;;;5073972;28;20365;-48
2023/06/10 06:01:19;;;;;;;6.60;5.05;;;27.00;88.30;;;;;;5073705;28;20017;-49
2023/06/10 06:03:45;;;;;;;6.53;5.28;;;27.00;87.40;;;;;;5072655;28;20024;-49
2023/06/10 06:06:10;;;;;;;8.90;5.63;;;27.20;86.70;;;;;;5072604;28;20031;-49
2023/06/10 06:08:36;;;;;;;6.85;6.00;;;27.20;86.20;;;;;;5073942;28;20036;-49
2023/06/10 06:11:01;;;;;;;8.07;5.65;;;27.60;85.50;;;;;;5073921;28;20446;-49
2023/06/10 06:13:27;;;;;;;7.05;5.15;;;27.80;85.10;;;;;;5073054;28;20031;-51
2023/06/10 06:15:52;;;;;;;7.72;5.45;;;28.20;84.00;;;;;;5073709;28;20043;-52
2023/06/10 06:18:18;;;;;;;6.72;4.90;;;28.10;83.80;;;;;;5073667;28;20508;-52
2023/06/10 06:20:44;;;;;;;8.80;5.63;;;28.10;83.20;;;;;;5073655;28;20166;-48
2023/06/10 06:23:10;;;;;;;5.50;4.70;;;28.10;83.40;;;;;;5055315;28;20407;-53
2023/06/10 06:25:38;;;;;;;7.43;5.07;;;28.00;83.50;;;;;;5073414;28;20104;-52
2023/06/10 06:28:05;;;;;;;6.55;5.50;;;28.20;83.40;;;;;;5073495;28;20400;-50
2023/06/10 06:30:31;;;;;;;8.00;5.70;;;28.10;82.90;;;;;;5073648;28;20020;-53
2023/06/10 06:32:56;;;;;;;6.85;4.75;;;28.20;82.10;;;;;;5071966;28;20037;-48
2023/06/10 06:35:22;;;;;;;10.60;5.40;;;28.00;82.80;;;;;;5073064;28;20111;-53
2023/06/10 06:37:47;;;;;;;5.78;5.28;;;28.10;82.50;;;;;;5073469;28;20082;-47
2023/06/10 06:40:13;;;;;;;11.30;5.18;;;28.40;82.30;;;;;;5072412;28;20031;-48
2023/06/10 06:42:39;;;;;;;7.53;5.45;;;28.90;81.10;;;;;;5072865;28;20440;-50
2023/06/10 06:45:05;;;;;;;5.75;5.10;;;29.10;80.40;;;;;;5072274;28;20037;-52
2023/06/10 06:47:30;;;;;;;8.68;5.07;;;29.10;80.70;;;;;;5073164;28;20104;-53
2023/06/10 06:49:56;;;;;;;8.43;4.88;;;29.60;80.50;;;;;;5072550;28;20096;-48
2023/06/10 06:52:22;;;;;;;6.20;4.75;;;29.60;80.00;;;;;;5072548;28;20029;-48
2023/06/10 06:54:47;;;;;;;9.43;5.47;;;30.10;78.30;;;;;;5072260;28;20028;-51
2023/06/10 06:57:13;;;;;;;8.23;5.13;;;30.10;78.00;;;;;;5072827;28;20031;-48
2023/06/10 06:59:39;;;;;;;5.13;4.50;;;30.00;77.90;;;;;;5072988;28;20522;-54
2023/06/10 07:02:05;;;;;;;5.60;5.10;;;30.10;76.90;;;;;;5072396;28;20028;-51
2023/06/10 07:04:30;;;;;;;5.18;4.68;;;30.00;77.20;;;;;;5072787;28;20038;-53
2023/06/10 07:06:56;;;;;;;5.75;4.78;;;30.00;77.20;;;;;;5070931;28;20017;-49
2023/06/10 07:09:21;;;;;;;7.63;4.43;;;29.90;77.20;;;;;;5072546;28;20032;-50
2023/06/10 07:11:47;;;;;;;8.10;5.10;;;29.90;76.90;;;;;;5072322;28;20029;-48
2023/06/10 07:14:12;;;;;;;5.80;4.70;;;30.10;76.50;;;;;;5072039;28;20032;-51
2023/06/10 07:16:38;;;;;;;5.00;4.40;;;30.50;75.00;;;;;;5070514;28;20040;-48
2023/06/10 07:19:03;;;;;;;6.20;5.13;;;30.60;74.60;;;;;;5072593;28;20476;-48
2023/06/10 07:21:30;;;;;;;6.60;5.22;;;31.10;74.30;;;;;;5072145;28;20213;-53
2023/06/10 07:23:55;;;;;;;6.88;5.05;;;31.20;74.30;;;;;;5071783;28;20307;-50
2023/06/10 07:26:22;;;;;;;7.80;5.22;;;31.20;74.00;;;;;;5071351;28;20044;-49
2023/06/10 07:28:48;;;;;;;6.85;4.68;;;31.30;73.80;;;;;;5072329;28;20130;-52
2023/06/10 07:31:14;;;;;;;5.70;4.38;;;31.00;73.70;;;;;;5071921;28;20484;-51
2023/06/10 07:33:39;;;;;;;5.78;5.00;;;31.00;72.80;;;;;;5072023;28;20464;-49
2023/06/10 07:36:06;;;;;;;5.45;4.75;;;30.90;73.60;;;;;;5072172;28;20064;-53
2023/06/10 07:38:31;;;;;;;5.78;4.60;;;31.00;73.00;;;;;;5072083;28;20035;-48
2023/06/10 07:40:57;;;;;;;5.85;4.88;;;31.40;73.50;;;;;;5054099;28;20396;-50
2023/06/10 07:43:23;;;;;;;8.88;5.50;;;31.50;73.40;;;;;;5071288;28;20021;-53
2023/06/10 07:45:49;;;;;;;6.68;4.85;;;31.50;72.20;;;;;;5071950;28;20063;-49
2023/06/10 07:48:14;;;;;;;8.38;5.10;;;31.60;72.70;;;;;;5072113;28;20490;-47
2023/06/10 07:50:40;;;;;;;6.03;4.80;;;31.90;71.40;;;;;;5071000;28;20024;-51
2023/06/10 07:53:06;;;;;;;5.00;4.50;;;32.10;71.90;;;;;;5071702;28;20066;-53
2023/06/10 07:55:31;;;;;;;9.55;5.75;;;33.00;71.00;;;;;;5071551;28;20033;-49
2023/06/10 07:57:57;;;;;;;6.53;4.80;;;33.00;70.50;;;;;;5072083;28;20036;-52
2023/06/10 08:00:22;;;;;;;7.13;4.80;;;33.40;69.50;;;;;;5071920;28;20441;-52
2023/06/10 08:02:48;;;;;;;6.88;5.03;;;33.60;68.70;;;;;;5071491;28;20037;-53
2023/06/10 08:05:13;;;;;;;5.32;4.82;;;32.90;68.80;;;;;;5071343;28;20028;-51
2023/06/10 08:07:40;;;;;;;6.80;4.63;;;33.00;69.60;;;;;;5071820;28;20020;-49
2023/06/10 08:10:06;;;;;;;4.90;4.50;;;33.00;69.40;;;;;;5071665;28;20104;-54
2023/06/10 08:12:33;;;;;;;7.05;5.55;;;33.30;68.80;;;;;;5071524;28;20029;-50
2023/06/10 08:14:58;;;;;;;8.13;4.78;;;33.20;68.60;;;;;;5071227;28;20036;-49
2023/06/10 08:17:24;;;;;;;5.88;4.97;;;33.30;68.90;;;;;;5071579;28;20025;-50
2023/06/10 08:19:49;;;;;;;7.20;4.82;;;33.30;68.50;;;;;;5071582;28;20108;-49
2023/06/10 08:22:15;;;;;;;5.40;4.88;;;32.50;68.40;;;;;;5070439;28;20032;-48
2023/06/10 08:24:41;;;;;;;8.60;5.40;;;31.80;70.50;;;;;;5070463;28;20032;-50
2023/06/10 08:27:06;;;;;;;6.05;5.32;;;31.30;70.80;;;;;;5068910;28;20111;-56
2023/06/10 08:29:32;;;;;;;6.60;4.90;;;31.20;71.40;;;;;;5053459;28;20021;-53
2023/06/10 08:31:58;;;;;;;5.63;4.82;;;31.10;71.40;;;;;;5071066;28;20031;-49
2023/06/10 08:34:23;;;;;;;6.15;4.88;;;30.80;72.40;;;;;;5070850;28;20028;-47
2023/06/10 08:36:53;;;;;;;7.72;5.20;;;30.40;72.50;;;;;;5071092;28;20021;-50
2023/06/10 08:39:19;;;;;;;11.63;5.55;;;30.50;73.80;;;;;;5071578;28;20426;-48
2023/06/10 08:42:04;;;;;;;8.77;5.97;;;30.90;73.90;;;;;;5056094;28;20119;-47
2023/06/10 08:44:30;;;;;;;5.50;5.00;;;31.00;71.80;;;;;;5069548;28;20036;-47
2023/06/10 08:47:00;;;;;;;6.53;5.88;;;30.90;72.70;;;;;;5071415;28;20020;-48
2023/06/10 08:49:30;;;;;;;5.85;5.22;;;30.40;72.90;;;;;;5071447;28;20032;-49
2023/06/10 08:52:00;;;;;;;6.40;5.35;;;30.40;73.00;;;;;;5052989;28;20448;-53
2023/06/10 08:54:31;;;;;;;10.02;5.10;;;30.00;73.50;;;;;;5070752;28;20107;-52
2023/06/10 08:56:58;;;;;;;5.82;5.22;;;29.90;74.40;;;;;;5052755;28;20099;-46
2023/06/10 08:59:25;;;;;;;6.18;5.40;;;29.80;74.00;;;;;;5071588;28;20055;-47
2023/06/10 09:01:51;;;;;;;7.40;5.88;;;29.90;74.30;;;;;;5071261;28;20020;-51
2023/06/10 09:04:18;;;;;;;10.55;5.20;;;29.70;74.30;;;;;;5069490;28;20074;-49
2023/06/10 09:06:45;;;;;;;10.57;5.18;;;29.70;74.90;;;;;;5070656;28;20017;-49
2023/06/10 09:09:13;;;;;;;8.65;5.47;;;29.70;74.00;;;;;;5040271;28;20111;-49
2023/06/10 09:11:40;;;;;;;10.02;5.47;;;29.60;74.10;;;;;;5053012;28;20025;-50
2023/06/10 09:14:06;;;;;;;8.10;6.07;;;28.80;75.10;;;;;;5057872;28;20339;-48
2023/06/10 09:16:31;;;;;;;9.20;5.20;;;28.70;76.60;;;;;;5071431;28;20457;-51
2023/06/10 09:18:57;;;;;;;8.90;5.78;;;28.70;77.10;;;;;;5071232;28;20504;-50
2023/06/10 09:21:23;;;;;;;8.75;5.57;;;29.00;76.70;;;;;;5071033;28;20024;-50
2023/06/10 09:23:49;;;;;;;8.32;5.53;;;29.20;76.40;;;;;;5069426;28;20024;-52
2023/06/10 09:26:15;;;;;;;11.00;9.10;;;29.30;94.40;;;;;;5069880;28;20040;-50
2023/06/10 09:28:48;;;;;;;12.55;8.48;;;29.60;94.40;;;;;;5071240;28;20025;-53
2023/06/10 09:31:13;;;;;;;6.30;5.70;;;29.60;74.50;;;;;;5070799;28;20392;-47
2023/06/10 09:33:39;;;;;;;5.85;5.25;;;29.30;74.90;;;;;;5086951;28;20013;-48
2023/06/10 09:36:06;;;;;;;10.73;4.82;;;29.10;76.30;;;;;;5071249;28;20032;-49
2023/06/10 09:38:34;;;;;;;6.18;5.25;;;28.90;76.60;;;;;;5071547;28;20084;-50
2023/06/10 09:41:01;;;;;;;7.60;5.90;;;28.70;76.60;;;;;;5073453;28;20020;-52
2023/06/10 09:43:42;;;;;;;7.63;5.45;;;28.70;77.60;;;;;;5072937;28;20025;-50
2023/06/10 09:46:17;;;;;;;5.85;4.75;;;28.60;76.80;;;;;;5074034;28;20017;-50
2023/06/10 09:48:45;;;;;;;8.05;5.85;;;28.60;77.10;;;;;;5073961;28;20081;-51
2023/06/10 09:51:11;;;;;;;4.93;4.45;;;28.60;76.40;;;;;;5073625;28;20569;-48
2023/06/10 09:53:37;;;;;;;5.65;5.13;;;28.50;75.20;;;;;;5073605;28;20028;-51
2023/06/10 09:56:03;;;;;;;7.70;5.20;;;28.50;76.90;;;;;;5073962;28;20031;-51
2023/06/10 09:58:39;;;;;;;8.98;5.00;;;28.50;76.80;;;;;;5072068;28;20115;-49
2023/06/10 10:01:06;;;;;;;5.47;4.78;;;28.50;76.90;;;;;;5072272;28;20518;-50
2023/06/10 10:03:32;;;;;;;5.22;4.63;;;28.40;76.30;;;;;;5072807;28;20149;-55
2023/06/10 10:06:00;;;;;;;6.60;4.80;;;28.40;76.10;;;;;;5084258;28;20503;-54
2023/06/10 10:08:25;;;;;;;5.68;4.70;;;28.30;76.10;;;;;;5087637;28;20104;-48
2023/06/10 10:10:51;;;;;;;13.50;5.32;;;28.30;76.70;;;;;;5074258;28;20112;-54
2023/06/10 10:13:18;;;;;;;7.78;4.90;;;28.50;78.10;;;;;;5072737;28;20025;-53
2023/06/10 10:15:44;;;;;;;11.77;5.53;;;28.50;76.60;;;;;;5073725;28;20048;-47
2023/06/10 10:18:13;;;;;;;5.90;4.95;;;28.50;77.10;;;;;;5074090;28;20032;-48
2023/06/10 10:20:47;;;;;;;8.60;4.90;;;28.60;76.10;;;;;;5074057;28;20112;-50
2023/06/10 10:23:17;;;;;;;5.22;4.70;;;28.60;77.20;;;;;;5071948;28;20024;-50
2023/06/10 10:25:43;;;;;;;7.53;5.30;;;28.30;75.80;;;;;;5071246;28;20116;-53
2023/06/10 10:28:10;;;;;;;5.85;5.15;;;28.30;76.30;;;;;;5073473;28;20485;-48
2023/06/10 10:30:46;;;;;;;14.23;5.40;;;28.10;76.60;;;;;;5073677;28;20115;-51
2023/06/10 10:33:33;;;;;;;6.78;4.88;;;27.90;77.00;;;;;;5064216;28;20017;-53
2023/06/10 10:35:59;;;;;;;6.90;4.82;;;27.80;77.30;;;;;;5073006;28;20061;-52
2023/06/10 10:38:25;;;;;;;5.10;4.60;;;28.00;76.70;;;;;;5073234;28;20549;-53
2023/06/10 10:40:51;;;;;;;12.35;5.20;;;28.00;77.40;;;;;;5055077;28;20326;-52
2023/06/10 10:43:17;;;;;;;10.27;5.05;;;28.10;77.20;;;;;;5072138;28;20392;-49
2023/06/10 10:45:46;;;;;;;33.53;22.15;;;28.20;78.10;;;;;;5071940;28;20496;-51
2023/06/10 10:48:12;;;;;;;20.02;16.00;;;28.50;78.30;;;;;;5072890;28;20048;-55
2023/06/10 10:50:38;;;;;;;6.00;5.43;;;28.70;76.30;;;;;;5072319;28;20028;-53
2023/06/10 10:53:05;;;;;;;9.43;4.60;;;28.70;76.60;;;;;;5072118;28;20024;-53
2023/06/10 10:55:31;;;;;;;5.53;5.03;;;28.80;76.50;;;;;;5072075;28;20128;-52
2023/06/10 10:58:05;;;;;;;5.13;4.63;;;28.70;76.80;;;;;;5072906;28;20032;-51
2023/06/10 11:00:46;;;;;;;5.30;4.80;;;28.60;78.00;;;;;;5072057;28;20063;-49
2023/06/10 11:03:19;;;;;;;8.30;5.82;;;28.60;76.80;;;;;;5070100;28;20020;-49
2023/06/10 11:05:49;;;;;;;5.22;4.72;;;28.70;77.10;;;;;;5072610;28;20029;-50
2023/06/10 11:08:35;;;;;;;5.20;4.70;;;28.70;77.60;;;;;;5072803;28;20056;-50
2023/06/10 11:11:16;;;;;;;6.25;4.90;;;28.60;76.70;;;;;;5072534;28;20046;-52
2023/06/10 11:16:11;;;;;;;4.82;4.43;;;28.30;76.40;;;;;;5018802;28;20066;-50
2023/06/10 11:18:40;;;;;;;7.65;4.50;;;28.30;76.60;;;;;;5021744;28;20499;-55
2023/06/10 11:21:05;;;;;;;6.63;4.38;;;28.20;76.20;;;;;;5029084;28;20029;-50
2023/06/10 11:23:34;;;;;;;5.85;4.55;;;28.20;76.40;;;;;;5024473;28;20030;-54
2023/06/10 11:26:31;;;;;;;8.02;4.20;;;28.20;75.90;;;;;;5024921;28;20029;-52
2023/06/10 11:28:57;;;;;;;6.57;4.13;;;28.30;74.70;;;;;;5004663;28;20490;-51
2023/06/10 11:31:24;;;;;;;6.88;4.20;;;28.40;75.10;;;;;;5011073;28;20025;-51
2023/06/10 11:33:56;;;;;;;7.28;4.10;;;28.50;75.60;;;;;;5012247;28;20386;-50
2023/06/10 11:36:23;;;;;;;4.47;3.97;;;28.50;73.00;;;;;;5009130;28;20026;-53
2023/06/10 11:38:50;;;;;;;4.00;3.58;;;28.40;73.60;;;;;;4997875;28;20519;-53
2023/06/10 11:41:17;;;;;;;6.93;3.65;;;28.50;71.80;;;;;;5011917;28;20042;-51
2023/06/10 11:43:47;;;;;;;3.45;3.15;;;28.50;73.60;;;;;;4994140;28;20025;-47
2023/06/10 11:46:15;;;;;;;5.15;3.35;;;28.60;69.80;;;;;;5016351;28;20034;-53
2023/06/10 11:48:52;;;;;;;5.88;5.15;;;28.50;70.20;;;;;;5023447;28;20030;-52
2023/06/10 11:51:18;;;;;;;4.38;3.85;;;28.50;70.90;;;;;;5012057;28;20026;-49
2023/06/10 11:53:47;;;;;;;3.78;3.47;;;28.70;70.80;;;;;;5011367;28;20018;-53
2023/06/10 11:56:13;;;;;;;4.03;3.40;;;28.80;71.80;;;;;;5020046;28;20041;-49
2023/06/10 11:58:44;;;;;;;3.47;3.17;;;28.90;70.50;;;;;;5024794;28;20504;-53
2023/06/10 12:01:10;;;;;;;2.95;2.75;;;29.10;71.80;;;;;;5031780;28;20452;-52
2023/06/10 12:03:37;;;;;;;5.30;3.00;;;29.20;69.10;;;;;;5031174;28;20056;-49
2023/06/10 12:06:06;;;;;;;4.90;2.80;;;29.20;67.30;;;;;;5007084;28;20041;-50
2023/06/10 12:08:33;;;;;;;4.93;3.00;;;29.10;67.30;;;;;;5006082;28;20022;-54
2023/06/10 12:10:59;;;;;;;3.40;3.10;;;29.00;68.20;;;;;;4998135;28;20022;-53
2023/06/10 12:13:27;;;;;;;5.18;3.35;;;29.10;69.80;;;;;;5020918;28;20120;-53
2023/06/10 12:15:53;;;;;;;4.25;3.20;;;28.90;68.90;;;;;;5015333;28;20421;-51
2023/06/10 12:18:23;;;;;;;2.85;2.65;;;28.70;69.10;;;;;;5013042;28;20041;-53
2023/06/10 12:20:50;;;;;;;6.43;3.20;;;28.60;68.60;;;;;;5013045;28;20058;-52
2023/06/10 12:23:16;;;;;;;4.60;3.15;;;28.60;69.20;;;;;;5012106;28;20037;-49
2023/06/10 12:25:54;;;;;;;3.17;2.97;;;28.60;68.50;;;;;;5011320;28;20036;-52
2023/06/10 12:28:24;;;;;;;3.25;3.00;;;28.60;69.40;;;;;;5013386;28;20078;-51
2023/06/10 12:30:49;;;;;;;3.08;2.83;;;28.70;67.80;;;;;;5018938;28;20094;-55
2023/06/10 12:33:21;;;;;;;3.30;3.10;;;28.70;67.90;;;;;;5028442;28;20045;-51
2023/06/10 12:35:52;;;;;;;6.18;3.80;;;28.70;68.20;;;;;;5031368;28;20260;-52
2023/06/10 12:38:22;;;;;;;5.57;2.88;;;28.70;68.60;;;;;;5031341;28;20029;-54
2023/06/10 12:40:48;;;;;;;4.57;3.10;;;28.80;68.10;;;;;;5031105;28;20109;-55
2023/06/10 12:43:18;;;;;;;3.15;2.90;;;28.80;68.10;;;;;;5030519;28;20112;-50
2023/06/10 12:45:44;;;;;;;4.47;3.50;;;28.90;69.00;;;;;;5030206;28;20036;-50